createdAt,value
2024-02-29T00:02:24.638Z,17.23
2024-02-29T00:04:51.152Z,16.27
2024-02-29T00:07:17.919Z,17.08
2024-02-29T00:09:44.809Z,16.60
2024-02-29T00:12:11.634Z,17.95
2024-02-29T00:14:39.245Z,17.23
2024-02-29T00:17:07.311Z,16.15
2024-02-29T00:19:34.091Z,18.13
2024-02-29T00:22:00.965Z,17.02
2024-02-29T00:24:27.851Z,17.67
2024-02-29T00:26:54.526Z,16.88
2024-02-29T00:29:22.975Z,16.23
2024-02-29T00:31:49.951Z,15.88
2024-02-29T00:34:16.753Z,16.20
2024-02-29T00:36:43.748Z,17.23
2024-02-29T00:39:14.882Z,19.65
2024-02-29T00:41:42.818Z,17.40
2024-02-29T00:44:10.574Z,17.48
2024-02-29T00:46:41.410Z,17.13
2024-02-29T00:49:08.417Z,16.50
2024-02-29T00:51:35.509Z,17.05
2024-02-29T00:54:02.343Z,14.85
2024-02-29T00:56:29.095Z,16.17
2024-02-29T00:58:55.649Z,16.08
2024-02-29T01:01:22.276Z,16.35
2024-02-29T01:03:49.350Z,18.33
2024-02-29T01:06:17.147Z,16.38
2024-02-29T01:08:43.981Z,16.50
2024-02-29T01:11:10.641Z,16.52
2024-02-29T01:13:37.530Z,17.58
2024-02-29T01:16:04.382Z,18.08
2024-02-29T01:18:30.949Z,16.90
2024-02-29T01:20:57.766Z,16.77
2024-02-29T01:23:24.321Z,16.10
2024-02-29T01:25:51.061Z,17.10
2024-02-29T01:28:17.617Z,16.88
2024-02-29T01:30:44.687Z,16.05
2024-02-29T01:33:11.330Z,16.83
2024-02-29T01:35:39.260Z,15.52
2024-02-29T01:38:06.148Z,16.80
2024-02-29T01:40:33.161Z,15.82
2024-02-29T01:42:59.742Z,17.00
2024-02-29T01:45:26.539Z,16.10
2024-02-29T01:47:53.406Z,15.20
2024-02-29T01:50:20.657Z,15.20
2024-02-29T01:52:47.266Z,15.93
2024-02-29T01:55:14.179Z,15.80
2024-02-29T01:57:41.095Z,15.15
2024-02-29T02:00:10.191Z,15.75
2024-02-29T02:02:39.225Z,15.05
2024-02-29T02:05:09.569Z,14.98
2024-02-29T02:07:37.000Z,17.10
2024-02-29T02:10:04.697Z,15.30
2024-02-29T02:12:31.512Z,14.77
2024-02-29T02:14:58.524Z,15.65
2024-02-29T02:17:25.402Z,15.38
2024-02-29T02:19:53.620Z,14.85
2024-02-29T02:22:20.382Z,15.43
2024-02-29T02:24:47.133Z,16.50
2024-02-29T02:27:13.926Z,17.15
2024-02-29T02:29:40.761Z,16.35
2024-02-29T02:32:08.065Z,17.58
2024-02-29T02:34:34.833Z,15.25
2024-02-29T02:37:01.349Z,13.95
2024-02-29T02:39:28.204Z,15.45
2024-02-29T02:41:54.954Z,14.25
2024-02-29T02:44:21.663Z,14.90
2024-02-29T02:46:48.466Z,15.02
2024-02-29T02:49:16.983Z,15.07
2024-02-29T02:51:43.852Z,13.75
2024-02-29T02:54:10.319Z,16.35
2024-02-29T02:56:37.041Z,14.52
2024-02-29T02:59:03.807Z,15.25
2024-02-29T03:01:31.249Z,14.73
2024-02-29T03:03:57.873Z,13.07
2024-02-29T03:06:24.388Z,15.10
2024-02-29T03:08:50.911Z,13.57
2024-02-29T03:11:17.507Z,14.63
2024-02-29T03:13:44.337Z,14.35
2024-02-29T03:16:10.916Z,12.60
2024-02-29T03:18:37.730Z,14.45
2024-02-29T03:21:04.845Z,14.40
2024-02-29T03:23:31.614Z,13.45
2024-02-29T03:25:58.411Z,13.65
2024-02-29T03:28:24.997Z,14.07
2024-02-29T03:30:51.835Z,14.57
2024-02-29T03:33:18.352Z,12.73
2024-02-29T03:35:45.098Z,12.82
2024-02-29T03:38:12.734Z,12.73
2024-02-29T03:40:39.233Z,14.60
2024-02-29T03:43:05.804Z,12.43
2024-02-29T03:45:32.527Z,12.00
2024-02-29T03:47:59.396Z,12.00
2024-02-29T03:50:26.000Z,12.48
2024-02-29T03:52:52.756Z,12.18
2024-02-29T03:55:19.569Z,12.85
2024-02-29T03:57:46.361Z,13.25
2024-02-29T04:00:13.641Z,12.68
2024-02-29T04:02:41.173Z,13.05
2024-02-29T04:05:09.318Z,12.95
2024-02-29T04:07:43.482Z,13.80
2024-02-29T04:10:12.368Z,12.30
2024-02-29T04:12:39.076Z,12.02
2024-02-29T04:15:06.397Z,11.60
2024-02-29T04:17:33.619Z,11.65
2024-02-29T04:20:00.459Z,11.68
2024-02-29T04:22:27.256Z,11.18
2024-02-29T04:24:53.839Z,10.98
2024-02-29T04:27:20.653Z,10.65
2024-02-29T04:29:47.735Z,10.55
2024-02-29T04:32:14.340Z,9.73
2024-02-29T04:34:42.421Z,10.02
2024-02-29T04:37:09.414Z,9.80
2024-02-29T04:39:36.559Z,11.70
2024-02-29T04:42:04.847Z,10.43
2024-02-29T04:44:31.717Z,10.80
2024-02-29T04:46:58.235Z,11.23
2024-02-29T04:49:24.859Z,10.63
2024-02-29T04:51:51.866Z,10.18
2024-02-29T04:54:18.752Z,10.55
2024-02-29T04:56:45.563Z,11.20
2024-02-29T04:59:12.324Z,9.43
2024-02-29T05:01:39.258Z,10.70
2024-02-29T05:04:06.118Z,9.68
2024-02-29T05:06:33.096Z,10.85
2024-02-29T05:09:00.500Z,12.73
2024-02-29T05:11:27.337Z,9.90
2024-02-29T05:13:53.933Z,9.68
2024-02-29T05:16:21.400Z,10.82
2024-02-29T05:18:48.333Z,10.38
2024-02-29T05:21:14.983Z,10.32
2024-02-29T05:23:41.523Z,10.30
2024-02-29T05:26:09.314Z,10.35
2024-02-29T05:28:36.408Z,10.80
2024-02-29T05:31:03.195Z,10.00
2024-02-29T05:33:29.768Z,10.50
2024-02-29T05:35:56.835Z,10.30
2024-02-29T05:38:23.627Z,10.63
2024-02-29T05:40:50.416Z,11.63
2024-02-29T05:43:17.451Z,10.27
2024-02-29T05:45:44.416Z,10.15
2024-02-29T05:48:11.061Z,10.38
2024-02-29T05:50:37.782Z,10.48
2024-02-29T05:53:04.641Z,9.68
2024-02-29T05:55:31.462Z,9.35
2024-02-29T05:57:58.034Z,8.10
2024-02-29T06:00:24.821Z,8.65
2024-02-29T06:02:53.032Z,8.82
2024-02-29T06:05:21.093Z,8.10
2024-02-29T06:07:47.680Z,8.32
2024-02-29T06:10:14.296Z,9.23
2024-02-29T06:12:41.055Z,9.32
2024-02-29T06:15:10.889Z,8.82
2024-02-29T06:17:38.508Z,9.32
2024-02-29T06:20:11.706Z,8.63
2024-02-29T06:22:41.060Z,7.05
2024-02-29T06:27:37.798Z,7.68
2024-02-29T06:30:06.972Z,8.40
2024-02-29T06:32:33.993Z,7.45
2024-02-29T06:35:00.880Z,8.40
2024-02-29T06:37:27.718Z,7.43
2024-02-29T06:39:57.399Z,9.27
2024-02-29T06:42:24.014Z,7.97
2024-02-29T06:44:52.508Z,8.25
2024-02-29T06:47:19.339Z,7.97
2024-02-29T06:49:45.874Z,7.93
2024-02-29T06:52:12.466Z,7.63
2024-02-29T06:54:39.319Z,7.82
2024-02-29T06:57:06.142Z,8.45
2024-02-29T06:59:32.679Z,7.43
2024-02-29T07:01:59.276Z,8.57
2024-02-29T07:04:26.282Z,8.38
2024-02-29T07:06:53.131Z,7.18
2024-02-29T07:09:19.907Z,7.18
2024-02-29T07:11:47.172Z,7.90
2024-02-29T07:14:14.387Z,7.63
2024-02-29T07:16:41.185Z,7.55
2024-02-29T07:19:08.019Z,8.32
2024-02-29T07:21:37.306Z,7.15
2024-02-29T07:26:32.163Z,7.10
2024-02-29T07:28:59.834Z,6.75
2024-02-29T07:31:26.957Z,7.43
2024-02-29T07:33:55.006Z,6.43
2024-02-29T07:36:21.989Z,7.40
2024-02-29T07:38:48.484Z,7.60
2024-02-29T07:41:15.358Z,7.03
2024-02-29T07:43:42.356Z,6.82
2024-02-29T07:46:10.167Z,7.10
2024-02-29T07:48:37.058Z,7.50
2024-02-29T07:51:03.945Z,6.95
2024-02-29T07:53:30.565Z,7.22
2024-02-29T07:55:57.381Z,7.45
2024-02-29T07:58:24.327Z,7.53
2024-02-29T08:00:51.168Z,6.80
2024-02-29T08:03:17.870Z,8.02
2024-02-29T08:05:44.636Z,6.28
2024-02-29T08:08:12.829Z,6.72
2024-02-29T08:10:40.436Z,6.72
2024-02-29T08:13:07.227Z,6.15
2024-02-29T08:15:35.419Z,6.57
2024-02-29T08:18:02.618Z,5.68
2024-02-29T08:20:29.516Z,6.25
2024-02-29T08:22:58.342Z,6.20
2024-02-29T08:25:27.743Z,6.07
2024-02-29T08:27:54.946Z,5.57
2024-02-29T08:30:21.686Z,5.82
2024-02-29T08:32:49.873Z,5.88
2024-02-29T08:35:17.635Z,5.60
2024-02-29T08:37:45.134Z,4.38
2024-02-29T08:40:12.138Z,4.78
2024-02-29T08:42:39.235Z,5.03
2024-02-29T08:45:08.075Z,4.68
2024-02-29T08:47:34.693Z,5.00
2024-02-29T08:50:03.230Z,4.97
2024-02-29T08:52:32.393Z,4.95
2024-02-29T08:54:59.010Z,6.43
2024-02-29T08:57:25.553Z,5.03
2024-02-29T08:59:52.322Z,4.75
2024-02-29T09:02:22.000Z,4.75
2024-02-29T09:04:48.811Z,4.63
2024-02-29T09:07:15.414Z,5.10
2024-02-29T09:09:43.380Z,4.75
2024-02-29T09:12:11.210Z,4.70
2024-02-29T09:14:38.576Z,4.38
2024-02-29T09:17:07.544Z,5.18
2024-02-29T09:19:34.840Z,5.90
2024-02-29T09:22:01.572Z,4.72
2024-02-29T09:24:28.438Z,6.07
2024-02-29T09:26:55.084Z,6.45
2024-02-29T09:29:25.637Z,6.47
2024-02-29T09:31:53.465Z,6.50
2024-02-29T09:34:20.234Z,6.90
2024-02-29T09:36:47.985Z,6.65
2024-02-29T09:39:14.771Z,6.25
2024-02-29T09:41:59.676Z,6.35
2024-02-29T09:44:28.516Z,6.32
2024-02-29T09:46:54.999Z,7.45
2024-02-29T09:49:21.784Z,6.95
2024-02-29T09:51:48.914Z,6.95
2024-02-29T09:54:19.222Z,6.80
2024-02-29T09:56:47.314Z,7.13
2024-02-29T09:59:16.932Z,7.60
2024-02-29T10:01:46.196Z,7.47
2024-02-29T10:04:12.923Z,6.40
2024-02-29T10:06:39.778Z,8.20
2024-02-29T10:09:06.957Z,8.15
2024-02-29T10:11:33.594Z,7.28
2024-02-29T10:14:03.408Z,8.13
2024-02-29T10:16:32.523Z,7.53
2024-02-29T10:19:02.522Z,7.70
2024-02-29T10:21:34.408Z,8.63
2024-02-29T10:24:01.172Z,8.13
2024-02-29T10:26:27.982Z,7.55
2024-02-29T10:29:04.089Z,8.15
2024-02-29T10:31:30.923Z,9.23
2024-02-29T10:33:57.446Z,9.20
2024-02-29T10:36:24.406Z,8.60
2024-02-29T10:38:51.412Z,7.90
2024-02-29T10:41:20.740Z,8.38
2024-02-29T10:43:51.827Z,9.35
2024-02-29T10:46:20.971Z,8.15
2024-02-29T10:48:50.886Z,9.40
2024-02-29T10:51:55.387Z,8.30
2024-02-29T10:54:29.515Z,8.95
2024-02-29T10:56:57.559Z,8.30
2024-02-29T10:59:26.440Z,7.80
2024-02-29T11:04:26.921Z,8.57
2024-02-29T11:06:54.172Z,8.10
2024-02-29T11:09:28.147Z,7.72
2024-02-29T11:12:15.245Z,8.23
2024-02-29T11:14:46.590Z,7.85
2024-02-29T11:17:16.637Z,7.65
2024-02-29T11:19:52.007Z,7.35
2024-02-29T11:22:32.858Z,8.20
2024-02-29T11:25:01.307Z,7.88
2024-02-29T11:27:34.959Z,8.05
2024-02-29T11:30:02.856Z,7.00
2024-02-29T11:32:33.530Z,7.25
2024-02-29T11:35:00.491Z,8.20
2024-02-29T11:37:32.710Z,7.35
2024-02-29T11:40:06.490Z,6.82
2024-02-29T11:42:33.676Z,7.47
2024-02-29T11:45:00.445Z,6.32
2024-02-29T11:47:28.627Z,7.10
2024-02-29T11:49:59.289Z,7.25
2024-02-29T11:52:26.062Z,6.38
2024-02-29T11:54:54.094Z,6.00
2024-02-29T11:57:23.241Z,6.80
2024-02-29T11:59:51.388Z,6.85
2024-02-29T12:02:19.782Z,6.22
2024-02-29T12:04:46.699Z,7.18
2024-02-29T12:07:13.489Z,6.47
2024-02-29T12:09:40.667Z,6.10
2024-02-29T12:12:07.757Z,6.22
2024-02-29T12:14:37.271Z,6.53
2024-02-29T12:17:06.953Z,6.40
2024-02-29T12:19:33.812Z,6.20
2024-02-29T12:22:00.668Z,6.63
2024-02-29T12:24:27.611Z,7.22
2024-02-29T12:26:54.275Z,6.78
2024-02-29T12:29:23.461Z,6.93
2024-02-29T12:31:50.831Z,6.45
2024-02-29T12:34:18.557Z,5.80
2024-02-29T12:36:48.230Z,6.28
2024-02-29T12:39:20.505Z,6.57
2024-02-29T12:41:47.323Z,5.90
2024-02-29T12:44:14.162Z,5.97
2024-02-29T12:46:41.614Z,6.38
2024-02-29T12:49:08.733Z,5.78
2024-02-29T12:51:35.489Z,5.70
2024-02-29T12:54:02.245Z,5.75
2024-02-29T12:56:28.782Z,5.40
2024-02-29T12:58:55.310Z,5.13
2024-02-29T13:01:22.702Z,5.63
2024-02-29T13:03:49.562Z,5.72
2024-02-29T13:06:16.555Z,4.68
2024-02-29T13:08:43.288Z,5.60
2024-02-29T13:11:09.989Z,5.00
2024-02-29T13:13:38.725Z,4.90
2024-02-29T13:18:32.756Z,4.82
2024-02-29T13:21:01.314Z,4.85
2024-02-29T13:23:28.977Z,4.85
2024-02-29T13:25:55.979Z,4.60
2024-02-29T13:28:22.975Z,4.40
2024-02-29T13:30:49.914Z,4.20
2024-02-29T13:33:17.896Z,4.38
2024-02-29T13:35:44.845Z,4.03
2024-02-29T13:38:12.206Z,4.82
2024-02-29T13:40:39.026Z,4.22
2024-02-29T13:43:05.814Z,3.70
2024-02-29T13:45:38.791Z,4.47
2024-02-29T13:48:06.091Z,4.75
2024-02-29T13:50:33.271Z,3.72
2024-02-29T13:53:00.033Z,5.07
2024-02-29T13:55:26.900Z,4.35
2024-02-29T13:57:54.142Z,4.60
2024-02-29T14:00:21.184Z,4.25
2024-02-29T14:02:47.715Z,4.30
2024-02-29T14:05:15.542Z,4.55
2024-02-29T14:07:44.550Z,4.28
2024-02-29T14:10:12.320Z,4.20
2024-02-29T14:12:40.000Z,4.45
2024-02-29T14:15:07.250Z,4.00
2024-02-29T14:17:34.151Z,4.65
2024-02-29T14:20:00.962Z,4.55
2024-02-29T14:22:28.709Z,4.45
2024-02-29T14:24:55.467Z,3.90
2024-02-29T14:27:24.011Z,4.15
2024-02-29T14:29:50.880Z,4.93
2024-02-29T14:32:17.801Z,5.50
2024-02-29T14:34:45.347Z,5.13
2024-02-29T14:37:12.204Z,4.97
2024-02-29T14:39:39.115Z,5.00
2024-02-29T14:42:05.876Z,4.38
2024-02-29T14:44:32.447Z,5.47
2024-02-29T14:46:59.401Z,4.60
2024-02-29T14:49:26.795Z,5.40
2024-02-29T14:51:56.947Z,4.82
2024-02-29T14:54:23.755Z,5.47
2024-02-29T14:56:51.113Z,5.43
2024-02-29T14:59:18.602Z,5.50
2024-02-29T15:01:45.449Z,5.70
2024-02-29T15:04:13.333Z,5.50
2024-02-29T15:06:40.913Z,5.47
2024-02-29T15:09:07.823Z,5.32
2024-02-29T15:11:34.512Z,5.45
2024-02-29T15:14:01.305Z,5.50
2024-02-29T15:16:28.603Z,5.95
2024-02-29T15:18:55.549Z,5.53
2024-02-29T15:21:22.159Z,6.07
2024-02-29T15:23:48.790Z,5.43
2024-02-29T15:26:16.749Z,5.65
2024-02-29T15:28:49.165Z,5.32
2024-02-29T15:31:16.774Z,5.40
2024-02-29T15:33:44.130Z,5.68
2024-02-29T15:36:11.247Z,4.55
2024-02-29T15:38:38.118Z,6.05
2024-02-29T15:41:05.092Z,5.45
2024-02-29T15:43:32.371Z,5.63
2024-02-29T15:45:59.407Z,5.50
2024-02-29T15:48:26.195Z,5.93
2024-02-29T15:50:53.184Z,5.60
2024-02-29T15:53:20.392Z,5.70
2024-02-29T15:55:50.376Z,6.25
2024-02-29T15:58:17.526Z,6.30
2024-02-29T16:00:44.275Z,6.65
2024-02-29T16:03:11.156Z,6.55
2024-02-29T16:05:37.793Z,6.95
2024-02-29T16:08:04.643Z,6.53
2024-02-29T16:10:32.339Z,7.55
2024-02-29T16:12:59.521Z,7.10
2024-02-29T16:15:26.644Z,6.82
2024-02-29T16:17:53.699Z,6.93
2024-02-29T16:20:23.077Z,7.35
2024-02-29T16:22:50.573Z,8.13
2024-02-29T16:25:19.636Z,7.53
2024-02-29T16:27:47.080Z,6.28
2024-02-29T16:30:13.948Z,7.20
2024-02-29T16:32:43.643Z,7.30
2024-02-29T16:35:12.888Z,7.00
2024-02-29T16:37:39.914Z,6.85
2024-02-29T16:40:07.337Z,8.02
2024-02-29T16:42:34.144Z,8.18
2024-02-29T16:45:00.933Z,7.72
2024-02-29T16:47:27.907Z,8.48
2024-02-29T16:49:54.781Z,7.43
2024-02-29T16:52:21.782Z,8.63
2024-02-29T16:54:48.475Z,8.77
2024-02-29T16:57:15.308Z,8.32
2024-02-29T16:59:42.140Z,9.07
2024-02-29T17:02:09.143Z,7.95
2024-02-29T17:04:37.426Z,8.38
2024-02-29T17:07:05.995Z,8.88
2024-02-29T17:09:33.179Z,8.00
2024-02-29T17:12:00.643Z,8.55
2024-02-29T17:14:29.376Z,8.02
2024-02-29T17:16:56.269Z,8.57
2024-02-29T17:19:23.182Z,8.70
2024-02-29T17:21:50.124Z,8.40
2024-02-29T17:24:21.370Z,8.40
2024-02-29T17:26:48.224Z,9.35
2024-02-29T17:29:14.972Z,9.82
2024-02-29T17:31:41.441Z,8.88
2024-02-29T17:34:08.378Z,9.13
2024-02-29T17:36:35.934Z,9.07
2024-02-29T17:39:03.936Z,9.25
2024-02-29T17:41:30.779Z,9.23
2024-02-29T17:43:57.361Z,8.25
2024-02-29T17:46:24.197Z,9.57
2024-02-29T17:48:52.710Z,8.75
2024-02-29T17:51:19.473Z,9.77
2024-02-29T17:53:46.172Z,9.77
2024-02-29T17:56:13.608Z,10.32
2024-02-29T17:58:40.319Z,8.80
2024-02-29T18:01:06.843Z,9.70
2024-02-29T18:03:33.863Z,10.63
2024-02-29T18:06:00.583Z,10.20
2024-02-29T18:08:27.350Z,9.98
2024-02-29T18:10:53.939Z,10.32
2024-02-29T18:13:20.821Z,10.10
2024-02-29T18:15:47.483Z,10.48
2024-02-29T18:18:14.314Z,9.73
2024-02-29T18:20:41.125Z,10.77
2024-02-29T18:23:08.784Z,9.75
2024-02-29T18:25:35.395Z,10.18
2024-02-29T18:28:02.262Z,8.95
2024-02-29T18:30:28.852Z,9.63
2024-02-29T18:32:55.827Z,9.20
2024-02-29T18:35:22.655Z,9.18
2024-02-29T18:37:49.189Z,10.68
2024-02-29T18:40:16.143Z,10.20
2024-02-29T18:42:43.521Z,10.02
2024-02-29T18:45:10.698Z,9.82
2024-02-29T18:47:37.372Z,10.18
2024-02-29T18:50:05.894Z,10.63
2024-02-29T18:52:32.741Z,9.52
2024-02-29T18:54:59.613Z,10.75
2024-02-29T18:57:26.172Z,10.85
2024-02-29T18:59:52.941Z,10.68
2024-02-29T19:02:19.820Z,9.63
2024-02-29T19:04:52.195Z,9.55
2024-02-29T19:07:19.145Z,9.90
2024-02-29T19:09:46.304Z,9.45
2024-02-29T19:12:13.160Z,10.80
2024-02-29T19:14:40.424Z,10.68
2024-02-29T19:17:07.206Z,10.27
2024-02-29T19:19:33.669Z,10.02
2024-02-29T19:22:00.505Z,11.45
2024-02-29T19:24:27.308Z,10.98
2024-02-29T19:26:54.085Z,10.32
2024-02-29T19:29:20.879Z,9.95
2024-02-29T19:31:47.708Z,10.32
2024-02-29T19:34:14.464Z,10.02
2024-02-29T19:36:41.370Z,8.82
2024-02-29T19:39:07.962Z,10.32
2024-02-29T19:41:34.793Z,10.43
2024-02-29T19:44:01.526Z,11.82
2024-02-29T19:46:28.836Z,10.65
2024-02-29T19:48:55.794Z,10.77
2024-02-29T19:51:22.590Z,10.10
2024-02-29T19:53:49.120Z,10.90
2024-02-29T19:56:15.698Z,9.85
2024-02-29T19:58:42.636Z,11.07
2024-02-29T20:01:09.255Z,10.38
2024-02-29T20:03:35.793Z,9.60
2024-02-29T20:06:02.545Z,10.07
2024-02-29T20:08:29.363Z,10.00
2024-02-29T20:10:55.951Z,11.10
2024-02-29T20:13:22.959Z,10.65
2024-02-29T20:15:50.954Z,10.10
2024-02-29T20:18:19.034Z,10.75
2024-02-29T20:20:45.911Z,10.00
2024-02-29T20:23:13.157Z,10.57
2024-02-29T20:25:42.030Z,10.13
2024-02-29T20:28:09.177Z,10.65
2024-02-29T20:30:36.255Z,10.27
2024-02-29T20:33:02.880Z,10.02
2024-02-29T20:35:29.466Z,10.55
2024-02-29T20:37:56.246Z,10.50
2024-02-29T20:40:23.339Z,10.07
2024-02-29T20:42:50.142Z,10.25
2024-02-29T20:45:17.685Z,9.40
2024-02-29T20:47:45.036Z,9.68
2024-02-29T20:50:14.828Z,11.30
2024-02-29T20:52:43.674Z,10.45
2024-02-29T20:55:10.725Z,10.10
2024-02-29T20:57:37.996Z,10.40
2024-02-29T21:00:05.343Z,10.38
2024-02-29T21:02:32.157Z,10.93
2024-02-29T21:05:05.287Z,10.13
2024-02-29T21:07:33.670Z,9.60
2024-02-29T21:10:01.073Z,10.70
2024-02-29T21:12:27.883Z,10.05
2024-02-29T21:14:54.624Z,10.43
2024-02-29T21:17:22.491Z,11.90
2024-02-29T21:19:49.121Z,11.05
2024-02-29T21:22:16.293Z,10.40
2024-02-29T21:24:42.866Z,11.00
2024-02-29T21:27:09.911Z,10.23
2024-02-29T21:29:36.538Z,10.20
2024-02-29T21:32:04.900Z,10.65
2024-02-29T21:34:31.689Z,10.65
2024-02-29T21:36:58.837Z,10.02
2024-02-29T21:39:32.403Z,10.80
2024-02-29T21:42:04.078Z,11.40
2024-02-29T21:44:30.873Z,11.63
2024-02-29T21:46:57.615Z,10.88
2024-02-29T21:49:24.497Z,11.15
2024-02-29T21:51:52.540Z,10.85
2024-02-29T21:54:20.962Z,11.18
2024-02-29T21:56:47.520Z,11.18
2024-02-29T21:59:14.326Z,10.95
2024-02-29T22:01:40.992Z,10.43
2024-02-29T22:04:07.849Z,9.15
2024-02-29T22:06:34.648Z,10.82
2024-02-29T22:09:01.172Z,10.70
2024-02-29T22:11:28.428Z,10.35
2024-02-29T22:13:55.236Z,10.25
2024-02-29T22:16:22.588Z,10.25
2024-02-29T22:18:49.423Z,12.52
2024-02-29T22:21:26.352Z,11.27
2024-02-29T22:23:52.862Z,10.93
2024-02-29T22:26:19.363Z,11.35
2024-02-29T22:28:45.835Z,10.93
2024-02-29T22:31:12.615Z,10.70
2024-02-29T22:33:39.477Z,10.25
2024-02-29T22:36:06.305Z,12.35
2024-02-29T22:38:32.901Z,10.13
2024-02-29T22:41:01.631Z,11.60
2024-02-29T22:43:28.501Z,10.07
2024-02-29T22:45:55.384Z,12.32
2024-02-29T22:48:22.180Z,10.13
2024-02-29T22:50:49.198Z,10.68
2024-02-29T22:53:15.803Z,11.18
2024-02-29T22:55:42.511Z,11.07
2024-02-29T22:58:09.045Z,12.25
2024-02-29T23:00:37.781Z,11.32
2024-02-29T23:03:04.615Z,11.80
2024-02-29T23:05:31.256Z,11.60
2024-02-29T23:07:58.357Z,10.48
2024-02-29T23:10:27.340Z,10.73
2024-02-29T23:12:54.447Z,11.82
2024-02-29T23:15:21.194Z,10.75
2024-02-29T23:17:51.897Z,11.43
2024-02-29T23:20:18.898Z,11.27
2024-02-29T23:22:46.366Z,9.93
2024-02-29T23:25:13.499Z,11.88
2024-02-29T23:27:40.353Z,11.57
2024-02-29T23:30:08.709Z,11.48
2024-02-29T23:32:36.610Z,9.93
2024-02-29T23:35:03.827Z,11.18
2024-02-29T23:37:32.046Z,11.98
2024-02-29T23:39:59.148Z,11.13
2024-02-29T23:42:25.889Z,12.10
2024-02-29T23:44:52.465Z,12.20
2024-02-29T23:47:19.308Z,12.38
2024-02-29T23:49:46.047Z,12.23
2024-02-29T23:52:12.990Z,11.98
2024-02-29T23:54:40.642Z,12.48
2024-02-29T23:57:08.182Z,11.38
2024-02-29T23:59:34.927Z,12.63
